Terminal Aerodrome Forecast
Issued by NWS Amarillo, TX

Home | Current Version | Previous Version | Text Only | Print | Product List | Glossary On
Versions: 1 2 3 4 5 6 7 8 9 10 11 12 13 14 15 16 17
000
FTUS44 KAMA 301133
TAFDHT
TAF
KDHT 301133Z 3012/3112 09005KT 4SM BR VCSH SCT020 BKN050
     FM301700 33009KT P6SM BKN050 OVC150
     FM302100 28008KT P6SM BKN050 OVC150 PROB30 3021/3103 TSRA
      BKN060CB=

USA.gov is the U.S. government's official web portal to all federal, state and local government web resources and services.